Time;durP1;ratioP1;P1;durP2;ratioP2;P2;SDS_P1;SDS_P2;PMS_P1;PMS_P2;Temp;Humidity;BMP_temperature;BMP_pressure;BME280_temperature;BME280_humidity;BME280_pressure;Samples;Min_cycle;Max_cycle;Signal;HPM_P1;HPM_P2
2021/12/22 00:02:24;;;;;;;11.18;5.38;;;;;;;-2.01;73.35;101019.19;6252780;28;20048;-74
2021/12/22 00:05:27;;;;;;;;;;;;;;;-1.99;73.76;101022.63;6270832;28;20045;-75
2021/12/22 00:08:29;;;;;;;7.55;3.92;;;;;;;-1.97;73.38;101028.59;6269599;28;20375;-75
2021/12/22 00:11:30;;;;;;;8.00;4.47;;;;;;;-1.92;72.51;101023.50;6269601;28;20044;-75
2021/12/22 00:14:31;;;;;;;8.63;4.43;;;;;;;-2.02;70.69;101030.25;6253152;28;20120;-75
2021/12/22 00:17:31;;;;;;;10.02;4.72;;;;;;;-2.17;69.43;101018.25;6270740;28;20463;-75
2021/12/22 00:20:33;;;;;;;8.88;4.00;;;;;;;-2.12;69.19;101024.25;6253101;28;20041;-79
2021/12/22 00:23:35;;;;;;;6.95;3.92;;;;;;;-2.17;68.71;101032.72;6252897;28;20180;-79
2021/12/22 00:26:36;;;;;;;6.90;3.90;;;;;;;-2.10;68.64;101025.13;6236572;28;20036;-79
2021/12/22 00:29:36;;;;;;;8.32;3.95;;;;;;;-2.18;67.12;101031.00;6269287;28;20450;-79
2021/12/22 00:32:39;;;;;;;9.52;4.13;;;;;;;-2.16;67.22;101026.75;6269176;28;20446;-79
2021/12/22 00:35:44;;;;;;;8.15;3.13;;;;;;;-2.23;66.62;101036.09;6253210;28;20053;-78
2021/12/22 00:38:44;;;;;;;7.55;4.05;;;;;;;-2.23;67.34;101033.53;6269285;28;20499;-78
2021/12/22 00:41:45;;;;;;;7.43;3.53;;;;;;;-2.21;66.65;101033.56;6252853;28;20053;-78
2021/12/22 00:44:50;;;;;;;5.72;3.72;;;;;;;-2.24;66.61;101031.84;6270730;28;20044;-78
2021/12/22 00:47:51;;;;;;;7.18;4.18;;;;;;;-2.14;68.13;101038.72;6254860;28;20044;-78
2021/12/22 00:50:52;;;;;;;10.07;4.13;;;;;;;-2.11;67.44;101043.00;6257186;28;20041;-78
2021/12/22 00:53:52;;;;;;;7.60;3.97;;;;;;;-2.09;67.03;101043.88;6274915;28;20422;-75
2021/12/22 00:56:56;;;;;;;9.52;4.18;;;;;;;-2.05;66.00;101061.78;6274813;28;20041;-75
2021/12/22 00:59:57;;;;;;;10.85;4.32;;;;;;;-2.08;68.35;101038.78;6274751;28;20041;-75
2021/12/22 01:02:57;;;;;;;5.80;3.40;;;;;;;-2.08;67.72;101055.78;6273277;28;20041;-75
2021/12/22 01:05:58;;;;;;;7.18;4.20;;;;;;;-2.07;67.79;101055.81;6273478;28;20132;-75
2021/12/22 01:08:59;;;;;;;8.23;3.72;;;;;;;-2.12;66.99;101061.75;6240331;28;20495;-74
2021/12/22 01:12:00;;;;;;;11.55;4.90;;;;;;;-2.04;69.67;101062.66;6256774;28;20047;-75
2021/12/22 01:15:02;;;;;;;13.38;4.72;;;;;;;-2.04;69.53;101060.09;6273235;28;20037;-75
2021/12/22 01:18:13;;;;;;;9.30;4.85;;;;;;;-2.06;68.36;101059.22;6274458;28;20044;-76
2021/12/22 01:22:03;;;;;;;7.47;4.30;;;;;;;-2.23;72.23;101047.16;6273126;28;20533;-75
2021/12/22 01:24:39;;;;;;;7.25;4.43;;;;;;;-2.22;71.59;101053.16;6272820;28;20088;-75
2021/12/22 01:27:42;;;;;;;9.05;4.00;;;;;;;-2.20;71.52;101058.25;6272940;28;20128;-75
2021/12/22 01:30:47;;;;;;;7.43;4.20;;;;;;;-2.35;69.59;101049.63;6272831;28;20075;-79
2021/12/22 01:33:47;;;;;;;10.38;4.78;;;;;;;-2.49;68.92;101049.53;6273689;28;20053;-75
2021/12/22 01:36:48;;;;;;;8.07;4.15;;;;;;;-2.45;69.64;101051.28;6272726;28;20502;-75
2021/12/22 01:39:49;;;;;;;8.63;4.10;;;;;;;-2.57;69.44;101052.84;6272737;28;20120;-74
2021/12/22 01:42:58;;;;;;;9.63;4.68;;;;;;;-2.60;71.09;101051.13;6273527;28;20431;-75
2021/12/22 01:49:15;;;;;;;11.20;4.78;;;;;;;-2.68;70.40;101040.00;6273737;28;20040;-75
2021/12/22 01:52:19;;;;;;;13.13;5.60;;;;;;;-2.79;70.99;101037.34;6272457;28;20045;-75
2021/12/22 01:55:33;;;;;;;9.75;4.97;;;;;;;-2.86;70.77;101040.69;6273484;28;20041;-74
2021/12/22 01:58:37;;;;;;;13.70;5.43;;;;;;;-2.92;70.79;101036.38;6255130;28;20060;-75
2021/12/22 02:01:38;;;;;;;9.70;5.38;;;;;;;-2.95;71.10;101045.69;6273149;28;20044;-75
2021/12/22 02:04:41;;;;;;;13.63;5.93;;;;;;;-3.03;71.36;101045.59;6273167;28;20472;-74
2021/12/22 02:07:42;;;;;;;9.63;4.53;;;;;;;-3.05;71.83;101052.41;6256953;28;20049;-75
2021/12/22 02:10:47;;;;;;;13.52;6.40;;;;;;;-3.10;71.95;101044.69;6273266;28;20067;-74
2021/12/22 02:13:55;;;;;;;11.30;5.47;;;;;;;-3.09;72.41;101045.53;6272888;28;20144;-75
2021/12/22 02:16:56;;;;;;;14.85;5.93;;;;;;;-3.21;73.18;101055.63;6273468;28;20041;-78
2021/12/22 02:19:56;;;;;;;12.38;5.25;;;;;;;-3.25;73.59;101054.75;6271757;28;20079;-78
2021/12/22 02:22:58;;;;;;;13.35;5.70;;;;;;;-3.25;74.18;101055.59;6254914;28;20044;-78
2021/12/22 02:26:08;;;;;;;10.13;5.40;;;;;;;-3.23;74.92;101063.28;6271512;28;20116;-78
2021/12/22 02:29:20;;;;;;;10.40;5.28;;;;;;;-3.27;76.16;101064.94;6271567;28;20060;-78
2021/12/22 02:35:52;;;;;;;11.50;5.57;;;;;;;-3.40;75.92;101067.31;6272591;28;20045;-75
2021/12/22 02:38:59;;;;;;;13.60;5.30;;;;;;;-3.51;75.88;101062.94;6271433;28;20048;-75
2021/12/22 02:41:59;;;;;;;15.07;5.80;;;;;;;-3.43;75.24;101065.59;6271081;28;20033;-78
2021/12/22 02:45:14;;;;;;;10.25;5.10;;;;;;;-3.52;75.59;101075.66;6272200;28;20049;-78
2021/12/22 02:48:16;;;;;;;8.93;4.68;;;;;;;-3.52;75.97;101062.91;6272311;28;20498;-75
2021/12/22 02:51:18;;;;;;;11.90;4.82;;;;;;;-3.38;77.53;101068.19;6272202;28;20044;-74
2021/12/22 02:54:22;;;;;;;11.75;5.28;;;;;;;-3.41;78.16;101057.97;6272144;28;20553;-75
2021/12/22 02:57:37;;;;;;;9.77;4.50;;;;;;;-3.37;78.19;101068.22;6270748;28;20041;-74
2021/12/22 03:00:50;;;;;;;7.72;4.47;;;;;;;-3.46;78.78;101053.66;6256161;28;20598;-74
2021/12/22 03:04:01;;;;;;;15.48;5.30;;;;;;;-3.38;78.17;101058.81;6255704;28;20064;-75
2021/12/22 03:07:07;;;;;;;13.20;4.93;;;;;;;-3.31;78.55;101070.00;6271848;28;20037;-75
2021/12/22 03:10:12;;;;;;;9.43;4.57;;;;;;;-3.29;79.56;101061.50;6269873;28;20419;-78
2021/12/22 03:13:13;;;;;;;8.95;4.63;;;;;;;-3.22;78.55;101064.13;6271875;28;20681;-78
2021/12/22 03:16:16;;;;;;;10.35;4.70;;;;;;;-3.24;78.25;101062.41;6254059;28;20116;-78
2021/12/22 03:19:20;;;;;;;9.60;4.45;;;;;;;-3.35;76.49;101063.13;6271618;28;20099;-78
2021/12/22 03:22:22;;;;;;;12.38;5.05;;;;;;;-3.34;76.76;101058.03;6270287;28;20070;-78
2021/12/22 03:25:26;;;;;;;8.23;4.57;;;;;;;-3.41;76.57;101063.91;6271409;28;20045;-78
2021/12/22 03:28:27;;;;;;;10.88;5.32;;;;;;;-3.48;78.30;101054.44;6271362;28;20044;-78
2021/12/22 03:31:28;;;;;;;8.68;4.97;;;;;;;-3.50;78.22;101061.22;6253665;28;20116;-78
2021/12/22 03:34:29;;;;;;;10.30;5.32;;;;;;;-3.49;79.14;101068.91;6270009;28;20055;-78
2021/12/22 03:37:29;;;;;;;10.98;5.25;;;;;;;-3.52;79.88;101068.88;6270046;28;20052;-78
2021/12/22 03:40:30;;;;;;;11.85;5.22;;;;;;;-3.50;79.37;101058.69;6271156;28;20487;-78
2021/12/22 03:43:32;;;;;;;14.15;5.70;;;;;;;-3.52;79.42;101075.66;6269873;28;20396;-78
2021/12/22 03:46:33;;;;;;;12.82;5.68;;;;;;;-3.58;79.12;101083.22;6270017;28;20039;-78
2021/12/22 03:49:35;;;;;;;9.10;5.10;;;;;;;-3.63;78.90;101074.69;6269620;28;20415;-77
2021/12/22 03:52:36;;;;;;;12.73;5.73;;;;;;;-3.63;79.90;101074.69;6269884;28;20049;-78
2021/12/22 03:55:37;;;;;;;12.63;5.68;;;;;;;-3.59;79.55;101086.63;6253243;28;20052;-77
2021/12/22 03:58:38;;;;;;;9.77;5.20;;;;;;;-3.73;79.68;101089.00;6271034;28;20041;-78
2021/12/22 04:01:39;;;;;;;11.75;5.35;;;;;;;-3.74;79.45;101088.16;6269854;28;20511;-77
2021/12/22 04:04:40;;;;;;;9.63;5.07;;;;;;;-3.75;81.17;101086.41;6270700;28;20037;-77
2021/12/22 04:07:40;;;;;;;10.23;5.30;;;;;;;-3.79;80.82;101094.84;6269672;28;20052;-78
2021/12/22 04:10:41;;;;;;;11.18;5.43;;;;;;;-3.81;82.29;101091.44;6269587;28;20072;-78
2021/12/22 04:13:42;;;;;;;9.55;5.35;;;;;;;-3.88;82.04;101098.13;6270827;28;20055;-77
2021/12/22 04:16:43;;;;;;;7.72;4.80;;;;;;;-3.89;81.81;101108.31;6269537;28;20466;-77
2021/12/22 04:19:43;;;;;;;10.73;5.57;;;;;;;-3.98;81.35;101115.84;6270820;28;20139;-77
2021/12/22 04:22:44;;;;;;;10.20;5.57;;;;;;;-4.15;81.64;101116.41;6273735;28;20037;-77
2021/12/22 04:25:46;;;;;;;16.23;5.88;;;;;;;-4.21;82.51;101118.88;6274597;28;20049;-78
2021/12/22 04:28:47;;;;;;;10.13;5.93;;;;;;;-4.18;83.97;101118.06;6274470;28;20406;-77
2021/12/22 04:31:48;;;;;;;11.23;5.63;;;;;;;-4.12;84.13;101119.03;6275529;28;20037;-77
2021/12/22 04:34:49;;;;;;;11.15;5.55;;;;;;;-4.24;82.18;101113.75;6274125;28;20426;-77
2021/12/22 04:37:50;;;;;;;12.68;5.25;;;;;;;-4.26;82.63;101123.91;6257663;28;20041;-77
2021/12/22 04:40:51;;;;;;;12.18;6.18;;;;;;;-4.28;82.42;101128.13;6274150;28;20449;-78
2021/12/22 04:43:51;;;;;;;18.73;7.30;;;;;;;-4.28;82.94;101133.22;6273920;28;20069;-78
2021/12/22 04:46:52;;;;;;;25.08;9.93;;;;;;;-4.32;82.91;101128.91;6274006;28;20072;-77
2021/12/22 04:49:53;;;;;;;30.33;12.00;;;;;;;-4.25;83.19;101137.50;6257346;28;20072;-77
2021/12/22 04:53:05;;;;;;;32.00;13.07;;;;;;;-4.27;83.51;101137.47;6257333;28;20044;-77
2021/12/22 04:56:05;;;;;;;25.53;11.70;;;;;;;-4.30;82.87;101141.66;6273649;28;20037;-78
2021/12/22 04:59:06;;;;;;;25.63;10.68;;;;;;;-4.30;82.52;101137.41;6275146;28;20091;-77
2021/12/22 05:02:07;;;;;;;23.92;9.80;;;;;;;-4.24;83.30;101134.13;6274916;28;20500;-77
2021/12/22 05:05:08;;;;;;;16.33;9.32;;;;;;;-4.23;82.58;101140.94;6256904;28;20045;-78
2021/12/22 05:08:09;;;;;;;14.57;6.80;;;;;;;-4.19;83.89;101147.78;6257277;28;20553;-78
2021/12/22 05:11:10;;;;;;;13.50;7.55;;;;;;;-4.20;82.32;101151.19;6274646;28;20033;-77
2021/12/22 05:14:10;;;;;;;14.98;7.13;;;;;;;-4.22;83.39;101152.84;6256925;28;20049;-77
2021/12/22 05:17:19;;;;;;;15.07;6.72;;;;;;;-4.18;83.63;101151.19;6274410;28;20045;-77
2021/12/22 05:20:20;;;;;;;16.67;6.75;;;;;;;-4.17;83.26;101153.78;6273338;28;20045;-78
2021/12/22 05:23:21;;;;;;;24.08;6.85;;;;;;;-4.18;82.45;101154.63;6256529;28;20045;-78
2021/12/22 05:26:25;;;;;;;18.27;6.78;;;;;;;-4.07;83.04;101142.03;6256566;28;20045;-77
2021/12/22 05:29:28;;;;;;;11.57;6.07;;;;;;;-4.15;81.92;101149.56;6256999;28;20072;-77
2021/12/22 05:32:32;;;;;;;13.07;6.30;;;;;;;-4.15;83.00;101152.09;6272591;28;20055;-77
2021/12/22 05:35:33;;;;;;;12.02;6.05;;;;;;;-4.19;82.94;101141.84;6256098;28;20111;-77
2021/12/22 05:38:34;;;;;;;16.30;6.35;;;;;;;-4.29;84.17;101148.47;6274050;28;20048;-74
2021/12/22 05:41:35;;;;;;;14.40;6.80;;;;;;;-4.33;84.62;101149.25;6272752;28;20088;-74
2021/12/22 05:44:35;;;;;;;17.95;6.25;;;;;;;-4.31;82.77;101150.97;6255990;28;20037;-74
2021/12/22 05:47:36;;;;;;;14.70;6.15;;;;;;;-4.23;83.18;101157.91;6272572;28;20128;-77
2021/12/22 05:50:37;;;;;;;14.30;6.78;;;;;;;-4.26;81.47;101156.19;6272546;28;20067;-77
2021/12/22 05:53:39;;;;;;;14.13;7.15;;;;;;;-4.36;82.53;101160.25;6272345;28;20044;-77
2021/12/22 05:56:40;;;;;;;17.63;8.13;;;;;;;-4.36;81.23;101161.94;6273471;28;20045;-74
2021/12/22 05:59:41;;;;;;;16.27;7.35;;;;;;;-4.36;82.41;101161.94;6273730;28;20140;-74
2021/12/22 06:02:42;;;;;;;13.60;7.38;;;;;;;-4.32;82.50;101158.63;6250889;28;20503;-74
2021/12/22 06:05:43;;;;;;;25.63;9.13;;;;;;;-4.40;80.89;101163.56;6258823;28;20044;-74
2021/12/22 06:08:44;;;;;;;18.85;8.43;;;;;;;-4.41;79.72;101156.75;6271042;28;20040;-74
2021/12/22 06:11:44;;;;;;;18.27;8.57;;;;;;;-4.33;82.21;101167.09;6271916;28;20052;-74
2021/12/22 06:14:45;;;;;;;22.23;9.20;;;;;;;-4.49;79.14;101171.91;6271912;28;20487;-74
2021/12/22 06:17:48;;;;;;;25.00;10.77;;;;;;;-4.41;81.21;101177.13;6271618;28;20037;-74
2021/12/22 06:20:49;;;;;;;56.72;21.70;;;;;;;-4.43;79.74;101183.03;6272986;28;20045;-77
2021/12/22 06:23:50;;;;;;;61.75;21.08;;;;;;;-4.30;80.41;101185.00;6272215;28;20387;-77
2021/12/22 06:26:51;;;;;;;28.60;12.40;;;;;;;-4.32;79.01;101195.16;6272342;28;20045;-78
2021/12/22 06:29:52;;;;;;;18.42;9.57;;;;;;;-4.43;79.02;101204.28;6272614;28;20048;-74
2021/12/22 06:32:53;;;;;;;47.97;16.65;;;;;;;-4.36;79.44;101207.81;6258470;28;20452;-79
2021/12/22 06:35:54;;;;;;;40.40;14.65;;;;;;;-4.40;80.49;101206.88;6258274;28;20037;-79
2021/12/22 06:38:55;;;;;;;45.80;16.33;;;;;;;-4.36;78.59;101213.75;6235384;28;20491;-78
2021/12/22 06:41:56;;;;;;;36.30;14.63;;;;;;;-4.43;79.70;101209.38;6271182;28;20090;-78
2021/12/22 06:44:57;;;;;;;21.90;11.18;;;;;;;-4.38;79.77;101224.75;6272172;28;20045;-79
2021/12/22 06:47:57;;;;;;;28.13;11.45;;;;;;;-4.40;78.85;101228.97;6254587;28;20048;-79
2021/12/22 06:50:58;;;;;;;30.45;13.20;;;;;;;-4.44;79.28;101237.38;6254492;28;20037;-79
2021/12/22 06:53:59;;;;;;;40.63;16.98;;;;;;;-4.29;80.69;101241.06;6264641;28;20178;-79
2021/12/22 06:57:00;;;;;;;154.57;47.42;;;;;;;-4.21;79.62;101248.00;6266010;28;20040;-79
2021/12/22 07:00:06;;;;;;;54.63;19.75;;;;;;;-4.12;79.32;101249.03;6245952;28;20411;-79
2021/12/22 07:03:07;;;;;;;33.45;13.85;;;;;;;-4.08;79.21;101249.94;6271900;28;20055;-79
2021/12/22 07:06:08;;;;;;;26.38;12.18;;;;;;;-4.08;78.15;101243.16;6271898;28;20037;-78
2021/12/22 07:09:09;;;;;;;21.85;9.23;;;;;;;-4.11;78.22;101257.53;6270703;28;20045;-75
2021/12/22 07:12:10;;;;;;;23.25;12.35;;;;;;;-4.17;79.07;101260.81;6271766;28;20095;-75
2021/12/22 07:15:14;;;;;;;24.37;12.17;;;;;;;-4.19;78.52;101254.84;6271738;28;20037;-75
2021/12/22 07:18:15;;;;;;;17.92;9.27;;;;;;;-4.19;80.27;101265.03;6270335;28;20124;-79
2021/12/22 07:21:16;;;;;;;16.60;8.35;;;;;;;-4.05;80.71;101265.31;6271680;28;20043;-75
2021/12/22 07:24:17;;;;;;;24.52;7.90;;;;;;;-4.02;80.51;101250.03;6271362;28;20056;-75
2021/12/22 07:27:18;;;;;;;18.83;9.02;;;;;;;-3.89;80.99;101263.84;6261260;28;20050;-75
2021/12/22 07:30:19;;;;;;;25.77;13.90;;;;;;;-4.05;81.00;101258.50;6259263;28;20045;-74
2021/12/22 07:33:19;;;;;;;29.55;15.30;;;;;;;-3.89;81.82;101256.22;6255528;28;20045;-75
2021/12/22 07:36:20;;;;;;;21.73;12.52;;;;;;;-3.85;80.37;101250.34;6240080;28;20041;-79
2021/12/22 07:39:21;;;;;;;23.83;10.95;;;;;;;-3.79;80.49;101255.53;6271252;28;20049;-75
2021/12/22 07:42:22;;;;;;;25.48;10.93;;;;;;;-3.70;82.39;101248.06;6270104;28;20462;-79
2021/12/22 07:45:23;;;;;;;16.77;8.00;;;;;;;-3.66;81.19;101257.47;6270856;28;20072;-75
2021/12/22 07:48:25;;;;;;;25.40;8.80;;;;;;;-3.76;81.57;101250.50;6271955;28;20446;-74
2021/12/22 07:51:26;;;;;;;16.30;8.52;;;;;;;-3.75;81.92;101261.56;6269996;28;20044;-76
2021/12/22 07:54:26;;;;;;;18.63;9.10;;;;;;;-3.68;82.57;101258.28;6271263;28;20052;-75
2021/12/22 07:57:27;;;;;;;13.57;7.75;;;;;;;-3.73;82.92;101258.19;6269403;28;20052;-76
2021/12/22 08:00:28;;;;;;;18.77;8.82;;;;;;;-3.59;81.64;101260.13;6269492;28;20075;-79
2021/12/22 08:03:29;;;;;;;20.27;8.60;;;;;;;-3.54;82.37;101267.03;6268898;28;20120;-76
2021/12/22 08:06:30;;;;;;;22.40;9.93;;;;;;;-3.49;81.71;101262.00;6269382;28;20041;-75
2021/12/22 08:09:31;;;;;;;22.35;10.30;;;;;;;-3.36;79.15;101260.47;6270931;28;20088;-76
2021/12/22 08:12:33;;;;;;;22.70;10.63;;;;;;;-3.25;78.80;101272.59;6269469;28;20056;-75
2021/12/22 08:15:33;;;;;;;23.23;10.63;;;;;;;-2.90;77.43;101279.91;6269893;28;20059;-79
2021/12/22 08:18:36;;;;;;;18.85;10.98;;;;;;;-2.65;75.80;101268.28;6269557;28;20610;-79
2021/12/22 08:21:37;;;;;;;18.30;9.43;;;;;;;-2.42;75.03;101285.59;6269569;28;20048;-79
2021/12/22 08:24:38;;;;;;;19.55;10.60;;;;;;;-2.17;74.30;101273.97;6269339;28;20041;-80
2021/12/22 08:27:39;;;;;;;14.90;9.15;;;;;;;-2.10;72.07;101278.31;6269467;28;20068;-80
2021/12/22 08:30:40;;;;;;;21.13;11.00;;;;;;;-2.09;71.84;101280.00;6261016;28;20041;-76
2021/12/22 08:33:45;;;;;;;19.67;9.93;;;;;;;-1.89;73.43;101280.22;6256738;28;20053;-76
2021/12/22 08:40:07;;;;;;;20.88;8.70;;;;;;;-1.42;69.51;101276.38;6255413;28;20072;-78
2021/12/22 08:43:07;;;;;;;;;;;;;;;-1.23;68.79;101290.16;6229093;28;20048;-79
2021/12/22 08:46:08;;;;;;;19.80;10.32;;;;;;;-1.14;68.48;101297.03;6257860;28;19979;-76
2021/12/22 08:49:10;;;;;;;21.60;11.15;;;;;;;-1.10;67.58;101304.75;6237484;28;20396;-79
2021/12/22 08:52:11;;;;;;;25.15;12.23;;;;;;;-0.94;66.01;101299.75;6269299;28;20446;-79
2021/12/22 08:55:12;;;;;;;52.33;24.77;;;;;;;-0.94;68.59;101292.06;6269343;28;20493;-79
2021/12/22 08:58:13;;;;;;;36.28;18.02;;;;;;;-0.89;68.02;101305.75;6270334;28;20087;-78
2021/12/22 09:01:14;;;;;;;46.38;21.40;;;;;;;-0.66;66.78;101299.06;6270450;28;20040;-78
2021/12/22 09:04:15;;;;;;;39.35;16.98;;;;;;;-0.48;67.32;101289.72;6269131;28;20106;-78
2021/12/22 09:07:16;;;;;;;36.00;15.25;;;;;;;-0.24;66.03;101301.78;6268727;28;20041;-78
2021/12/22 09:10:17;;;;;;;30.17;13.88;;;;;;;-0.10;65.11;101301.84;6256154;28;20051;-78
2021/12/22 09:13:20;;;;;;;30.60;14.82;;;;;;;0.00;64.43;101301.00;6273848;28;20411;-77
2021/12/22 09:16:20;;;;;;;28.33;15.25;;;;;;;0.09;64.50;101300.16;6273840;28;20067;-77
2021/12/22 09:19:23;;;;;;;33.78;15.95;;;;;;;0.22;64.93;101306.19;6253357;28;20052;-77
2021/12/22 09:22:24;;;;;;;30.13;14.63;;;;;;;0.33;63.77;101307.03;6273638;28;20385;-77
2021/12/22 09:25:24;;;;;;;16.95;7.15;;;;;;;-0.15;57.68;101294.09;6273915;28;20048;-77
2021/12/22 09:28:25;;;;;;;10.27;5.55;;;;;;;-0.10;58.58;101289.88;6274626;28;20095;-76
2021/12/22 09:31:26;;;;;;;8.07;4.57;;;;;;;-0.14;54.88;101295.84;6239824;28;20045;-76
2021/12/22 09:34:27;;;;;;;9.85;4.60;;;;;;;0.13;56.19;101300.16;6274276;28;20435;-76
2021/12/22 09:37:28;;;;;;;8.75;4.35;;;;;;;-0.37;55.25;101307.72;6272438;28;20116;-76
2021/12/22 09:40:29;;;;;;;9.38;4.80;;;;;;;-0.48;57.76;101298.25;6272897;28;20446;-76
2021/12/22 09:43:30;;;;;;;8.73;4.35;;;;;;;0.20;55.21;101294.19;6272650;28;20541;-76
2021/12/22 09:46:31;;;;;;;9.10;4.60;;;;;;;0.52;56.81;101298.50;6273371;28;20037;-76
2021/12/22 09:49:58;;;;;;;11.10;4.75;;;;;;;-0.27;58.27;101302.66;6273047;28;20403;-76
2021/12/22 09:52:55;;;;;;;10.95;5.13;;;;;;;-0.15;59.76;101295.81;6269994;28;20480;-75
2021/12/22 09:56:00;;;;;;;10.95;5.70;;;;;;;-0.32;61.03;101299.19;6259194;28;20063;-77
2021/12/22 09:59:01;;;;;;;12.35;5.72;;;;;;;0.27;60.10;101297.63;6268504;28;20037;-77
2021/12/22 10:02:08;;;;;;;9.23;4.45;;;;;;;0.07;58.70;101302.72;6238794;28;20092;-77
2021/12/22 10:05:08;;;;;;;13.32;5.95;;;;;;;0.10;59.19;101301.88;6272035;28;20051;-77
2021/12/22 10:08:11;;;;;;;8.18;4.50;;;;;;;-0.32;60.15;101306.88;6255776;28;20545;-76
2021/12/22 10:11:12;;;;;;;10.35;4.53;;;;;;;-0.06;60.80;101303.56;6273672;28;20045;-76
2021/12/22 10:14:26;;;;;;;7.93;5.30;;;;;;;0.57;57.29;101307.06;6272257;28;20056;-75
2021/12/22 10:17:34;;;;;;;10.60;5.28;;;;;;;0.76;56.88;101300.22;6273977;28;20056;-75
2021/12/22 10:20:36;;;;;;;9.30;5.15;;;;;;;0.68;55.94;101290.78;6272180;28;20064;-75
2021/12/22 10:23:40;;;;;;;10.00;5.55;;;;;;;0.66;57.08;101295.94;6271939;28;20055;-74
2021/12/22 10:26:41;;;;;;;13.77;5.13;;;;;;;0.24;57.88;101292.47;6271446;28;20094;-76
2021/12/22 10:29:42;;;;;;;9.98;4.53;;;;;;;-0.20;59.92;101288.13;6273174;28;20041;-76
2021/12/22 10:32:42;;;;;;;9.48;4.40;;;;;;;0.13;60.15;101292.47;6272088;28;20123;-75
2021/12/22 10:35:49;;;;;;;12.02;5.18;;;;;;;0.51;58.60;101285.66;6254579;28;20032;-76
2021/12/22 10:39:00;;;;;;;12.45;5.57;;;;;;;0.75;56.77;101285.66;6271859;28;20065;-76
2021/12/22 10:42:08;;;;;;;9.20;5.40;;;;;;;0.27;57.38;101295.06;6271992;28;20033;-75
2021/12/22 10:45:14;;;;;;;12.40;5.82;;;;;;;0.45;57.35;101286.50;6254805;28;20052;-75
2021/12/22 10:51:40;;;;;;;11.07;6.13;;;;;;;0.57;58.47;101283.09;6271778;28;20431;-75
2021/12/22 10:54:41;;;;;;;10.85;5.53;;;;;;;0.49;57.13;101287.38;6253893;28;20045;-75
2021/12/22 10:57:47;;;;;;;12.45;5.75;;;;;;;0.94;55.30;101280.50;6270432;28;20090;-78
2021/12/22 11:01:17;;;;;;;13.45;5.22;;;;;;;0.36;55.50;101274.53;6267336;28;20510;-78
2021/12/22 11:04:23;;;;;;;13.75;5.65;;;;;;;0.44;56.52;101276.25;6263823;28;20045;-78
2021/12/22 11:07:29;;;;;;;13.13;6.28;;;;;;;0.73;58.20;101271.94;6271681;28;20045;-78
2021/12/22 11:10:30;;;;;;;9.20;5.03;;;;;;;0.71;55.82;101276.22;6271244;28;20045;-78
2021/12/22 11:13:31;;;;;;;11.50;4.93;;;;;;;0.88;55.17;101273.63;6268444;28;20076;-78
2021/12/22 11:16:32;;;;;;;11.73;4.40;;;;;;;0.81;54.85;101277.09;6253854;28;20037;-74
2021/12/22 11:19:56;;;;;;;8.45;4.78;;;;;;;0.54;52.46;101276.25;6270306;28;20480;-75
2021/12/22 11:23:08;;;;;;;8.27;4.40;;;;;;;1.17;52.46;101272.72;6262773;28;20641;-75
2021/12/22 11:26:12;;;;;;;6.10;3.65;;;;;;;0.85;52.51;101263.38;6270455;28;20040;-75
2021/12/22 11:29:12;;;;;;;8.48;4.40;;;;;;;1.28;52.69;101262.41;6269986;28;20037;-75
2021/12/22 11:32:14;;;;;;;9.18;4.00;;;;;;;0.90;49.61;101260.78;6252231;28;20048;-74
2021/12/22 11:35:16;;;;;;;8.02;3.95;;;;;;;1.45;51.40;101259.78;6268790;28;20053;-74
2021/12/22 11:38:17;;;;;;;8.23;4.20;;;;;;;1.32;50.92;101253.81;6270700;28;20044;-75
2021/12/22 11:41:20;;;;;;;6.53;3.85;;;;;;;1.24;49.60;101255.59;6270703;28;20400;-74
2021/12/22 11:44:23;;;;;;;7.00;3.30;;;;;;;0.70;50.31;101251.41;6269494;28;20079;-75
2021/12/22 11:47:24;;;;;;;8.68;4.35;;;;;;;1.16;52.31;101258.16;6270575;28;20542;-74
2021/12/22 11:50:32;;;;;;;9.65;3.92;;;;;;;0.72;49.94;101261.66;6267948;28;20037;-75
2021/12/22 11:53:53;;;;;;;6.95;2.88;;;;;;;1.00;48.08;101259.91;6266825;28;20041;-74
2021/12/22 11:56:57;;;;;;;7.68;3.05;;;;;;;0.42;49.77;101258.28;6253663;28;20041;-74
2021/12/22 12:00:34;;;;;;;7.07;3.72;;;;;;;0.99;51.70;101251.34;6270135;28;20068;-74
2021/12/22 12:03:43;;;;;;;6.72;3.03;;;;;;;0.95;47.73;101259.09;6267402;28;20100;-74
2021/12/22 12:06:51;;;;;;;10.15;4.25;;;;;;;0.70;48.57;101250.53;6268535;28;20087;-74
2021/12/22 12:09:52;;;;;;;11.45;3.85;;;;;;;0.80;49.15;101259.94;6268186;28;20033;-74
2021/12/22 12:12:56;;;;;;;9.15;4.97;;;;;;;0.92;48.25;101259.06;6252362;28;20068;-74
2021/12/22 12:23:32;;;;;;;10.35;5.65;;;;;;;0.81;49.32;101264.25;6266262;28;20037;-74
2021/12/22 12:26:40;;;;;;;12.13;6.65;;;;;;;0.53;53.15;101260.81;6268978;28;20064;-74
2021/12/22 12:30:09;;;;;;;13.52;6.93;;;;;;;0.97;52.50;101255.63;6270160;28;20044;-74
2021/12/22 12:33:20;;;;;;;13.70;8.10;;;;;;;1.28;51.10;101249.56;6269051;28;20415;-74
2021/12/22 12:36:32;;;;;;;14.88;6.85;;;;;;;1.42;50.37;101247.75;6268858;28;20045;-73
2021/12/22 12:39:53;;;;;;;13.40;6.47;;;;;;;1.26;50.46;101247.00;6268528;28;20055;-73
2021/12/22 12:42:58;;;;;;;12.88;6.68;;;;;;;0.71;52.75;101245.41;6254358;28;20049;-73
2021/12/22 12:46:00;;;;;;;10.02;6.10;;;;;;;0.87;51.79;101237.69;6272503;28;20045;-73
2021/12/22 12:49:07;;;;;;;10.18;5.40;;;;;;;1.12;50.59;101244.47;6255837;28;20068;-74
2021/12/22 12:52:10;;;;;;;9.88;5.18;;;;;;;0.84;49.38;101247.94;6271324;28;20045;-73
2021/12/22 12:55:14;;;;;;;12.55;6.53;;;;;;;0.54;50.15;101242.84;6272775;28;20079;-73
2021/12/22 12:58:28;;;;;;;12.05;4.97;;;;;;;0.33;50.66;101255.69;6273514;28;20423;-74
2021/12/22 13:01:50;;;;;;;9.63;5.32;;;;;;;0.76;50.58;101248.84;6273503;28;20041;-74
2021/12/22 13:05:06;;;;;;;10.43;5.43;;;;;;;0.81;51.23;101256.53;6273178;28;20539;-73
2021/12/22 13:08:08;;;;;;;8.38;4.80;;;;;;;0.25;52.62;101262.53;6273394;28;20052;-73
2021/12/22 13:11:13;;;;;;;10.43;5.03;;;;;;;0.22;52.97;101253.13;6274571;28;20045;-73
2021/12/22 13:17:57;;;;;;;10.43;5.63;;;;;;;0.67;54.53;101251.41;6274376;28;20052;-74
2021/12/22 13:21:06;;;;;;;9.40;5.10;;;;;;;0.88;53.90;101259.94;6272039;28;20040;-74
2021/12/22 13:24:17;;;;;;;9.57;5.38;;;;;;;0.79;52.78;101259.09;6272098;28;20045;-74
2021/12/22 13:27:31;;;;;;;12.05;4.65;;;;;;;0.70;54.34;101263.38;6272759;28;20511;-75
2021/12/22 13:30:39;;;;;;;12.13;5.43;;;;;;;0.52;52.44;101261.69;6272952;28;20044;-75
2021/12/22 13:33:45;;;;;;;11.98;5.60;;;;;;;0.70;53.57;101269.41;6272793;28;20060;-74
2021/12/22 13:36:58;;;;;;;11.27;4.88;;;;;;;0.48;52.83;101254.84;6274095;28;20472;-74
2021/12/22 13:39:59;;;;;;;6.63;3.97;;;;;;;0.43;52.87;101262.53;6272761;28;20045;-74
2021/12/22 13:43:00;;;;;;;7.50;3.97;;;;;;;0.32;52.24;101259.97;6273919;28;20048;-74
2021/12/22 13:46:27;;;;;;;10.00;4.85;;;;;;;0.34;50.86;101268.53;6247847;28;20046;-74
2021/12/22 13:49:29;;;;;;;8.55;3.60;;;;;;;0.14;54.10;101267.66;6249709;28;20037;-76
2021/12/22 13:52:30;;;;;;;10.20;4.63;;;;;;;0.28;53.59;101265.97;6261177;28;20087;-75
2021/12/22 13:55:30;;;;;;;8.77;4.90;;;;;;;0.28;52.31;101271.09;6263364;28;20041;-76
2021/12/22 13:58:39;;;;;;;9.95;4.60;;;;;;;-0.11;53.95;101262.47;6248782;28;20064;-77
2021/12/22 14:01:42;;;;;;;9.68;4.28;;;;;;;0.13;53.77;101261.66;6250167;28;20048;-78
2021/12/22 14:04:43;;;;;;;9.60;4.47;;;;;;;0.19;53.79;101266.81;6250451;28;20385;-78
2021/12/22 14:07:45;;;;;;;9.00;4.30;;;;;;;0.10;54.41;101271.91;6249234;28;20045;-77
2021/12/22 14:10:46;;;;;;;10.30;5.67;;;;;;;0.04;55.30;101279.59;6249235;28;20037;-77
2021/12/22 14:13:47;;;;;;;27.15;10.82;;;;;;;-0.06;55.16;101278.75;6261722;28;20067;-77
2021/12/22 14:16:48;;;;;;;45.13;17.90;;;;;;;-0.15;54.85;101277.88;6247597;28;20057;-77
2021/12/22 14:19:48;;;;;;;15.52;7.85;;;;;;;-0.31;57.95;101285.53;6273734;28;20044;-79
2021/12/22 14:23:01;;;;;;;10.10;5.30;;;;;;;-0.23;57.32;101278.72;6268916;28;20127;-76
2021/12/22 14:26:06;;;;;;;8.38;4.60;;;;;;;-0.33;57.95;101281.22;6269112;28;20045;-76
2021/12/22 14:29:09;;;;;;;14.52;7.03;;;;;;;-0.52;59.52;101280.31;6272547;28;20037;-76
2021/12/22 14:32:10;;;;;;;16.17;8.40;;;;;;;-0.52;60.79;101288.00;6273138;28;20045;-77
2021/12/22 14:35:13;;;;;;;13.43;7.90;;;;;;;-0.66;61.04;101283.69;6271954;28;20454;-77